createdAt,value
2022-10-25T00:01:23.352Z,16.50
2022-10-25T00:03:51.910Z,16.50
2022-10-25T00:06:20.066Z,16.50
2022-10-25T00:08:48.262Z,16.50
2022-10-25T00:11:22.039Z,16.40
2022-10-25T00:13:51.379Z,16.50
2022-10-25T00:16:22.528Z,16.40
2022-10-25T00:18:51.020Z,16.40
2022-10-25T00:21:19.572Z,16.40
2022-10-25T00:23:48.169Z,16.40
2022-10-25T00:26:16.534Z,16.40
2022-10-25T00:28:46.004Z,16.40
2022-10-25T00:31:15.717Z,16.40
2022-10-25T00:33:45.260Z,16.50
2022-10-25T00:36:15.059Z,16.40
2022-10-25T00:38:43.988Z,16.40
2022-10-25T00:41:12.779Z,16.50
2022-10-25T00:43:43.355Z,16.40
2022-10-25T00:46:19.985Z,16.40
2022-10-25T00:48:54.888Z,16.40
2022-10-25T00:51:28.929Z,16.50
2022-10-25T00:53:57.411Z,16.50
2022-10-25T00:56:28.770Z,16.50
2022-10-25T00:59:01.665Z,16.50
2022-10-25T01:01:31.845Z,16.50
2022-10-25T01:04:03.093Z,16.50
2022-10-25T01:06:35.380Z,16.50
2022-10-25T01:09:04.999Z,16.50
2022-10-25T01:11:33.220Z,16.50
2022-10-25T01:14:01.386Z,16.50
2022-10-25T01:16:36.978Z,16.50
2022-10-25T01:19:25.874Z,16.50
2022-10-25T01:21:57.534Z,16.50
2022-10-25T01:24:58.187Z,16.50
2022-10-25T01:31:07.233Z,16.50
2022-10-25T01:33:40.695Z,16.50
2022-10-25T01:36:15.080Z,16.50
2022-10-25T01:38:49.711Z,16.50
2022-10-25T01:41:24.528Z,16.40
2022-10-25T01:44:04.509Z,16.50
2022-10-25T01:46:41.773Z,16.50
2022-10-25T01:49:15.681Z,16.50
2022-10-25T01:51:43.942Z,16.50
2022-10-25T01:54:20.291Z,16.50
2022-10-25T01:56:57.528Z,16.50
2022-10-25T01:59:39.251Z,16.40
2022-10-25T02:02:13.928Z,16.40
2022-10-25T02:04:51.580Z,16.50
2022-10-25T02:07:25.827Z,16.40
2022-10-25T02:10:02.944Z,16.40
2022-10-25T02:12:34.829Z,16.40
2022-10-25T02:15:10.094Z,16.40
2022-10-25T02:17:45.215Z,16.40
2022-10-25T02:20:18.874Z,16.40
2022-10-25T02:22:48.265Z,16.40
2022-10-25T02:25:17.810Z,16.40
2022-10-25T02:27:47.143Z,16.40
2022-10-25T02:30:15.613Z,16.40
2022-10-25T02:32:45.180Z,16.40
2022-10-25T02:35:16.244Z,16.40
2022-10-25T02:37:45.126Z,16.40
2022-10-25T02:40:14.131Z,16.40
2022-10-25T02:42:42.341Z,16.40
2022-10-25T02:45:11.526Z,16.40
2022-10-25T02:47:59.568Z,16.40
2022-10-25T02:50:27.772Z,16.40
2022-10-25T02:52:56.210Z,16.40
2022-10-25T02:55:24.326Z,16.40
2022-10-25T02:57:52.498Z,16.40
2022-10-25T03:00:20.792Z,16.40
2022-10-25T03:02:49.161Z,16.40
2022-10-25T03:05:18.811Z,16.40
2022-10-25T03:07:46.975Z,16.40
2022-10-25T03:10:15.469Z,16.40
2022-10-25T03:12:43.742Z,16.40
2022-10-25T03:15:12.149Z,16.40
2022-10-25T03:17:40.361Z,16.40
2022-10-25T03:20:10.107Z,16.40
2022-10-25T03:22:39.831Z,16.40
2022-10-25T03:27:42.097Z,16.40
2022-10-25T03:30:10.801Z,16.40
2022-10-25T03:32:39.195Z,16.40
2022-10-25T03:35:08.608Z,16.40
2022-10-25T03:37:36.790Z,16.40
2022-10-25T03:40:07.509Z,16.40
2022-10-25T03:42:35.791Z,16.40
2022-10-25T03:45:04.410Z,16.40
2022-10-25T03:47:32.588Z,16.30
2022-10-25T03:50:00.720Z,16.40
2022-10-25T03:52:28.882Z,16.40
2022-10-25T03:54:57.016Z,16.40
2022-10-25T03:57:26.573Z,16.30
2022-10-25T03:59:55.293Z,16.30
2022-10-25T04:02:23.470Z,16.30
2022-10-25T04:04:51.622Z,16.30
2022-10-25T04:07:19.993Z,16.40
2022-10-25T04:09:48.770Z,16.40
2022-10-25T04:12:17.327Z,16.40
2022-10-25T04:14:47.777Z,16.40
2022-10-25T04:17:16.437Z,16.40
2022-10-25T04:19:46.737Z,16.40
2022-10-25T04:22:15.056Z,16.40
2022-10-25T04:24:43.411Z,16.40
2022-10-25T04:27:12.063Z,16.40
2022-10-25T04:29:40.425Z,16.30
2022-10-25T04:32:11.778Z,16.30
2022-10-25T04:34:40.276Z,16.30
2022-10-25T04:37:08.598Z,16.30
2022-10-25T04:39:36.820Z,16.30
2022-10-25T04:42:05.199Z,16.30
2022-10-25T04:44:34.116Z,16.30
2022-10-25T04:47:02.397Z,16.30
2022-10-25T04:49:35.499Z,16.30
2022-10-25T04:52:04.652Z,16.30
2022-10-25T04:54:34.354Z,16.30
2022-10-25T04:57:02.966Z,16.30
2022-10-25T04:59:31.810Z,16.30
2022-10-25T05:02:00.564Z,16.30
2022-10-25T05:04:30.003Z,16.30
2022-10-25T05:07:02.504Z,16.30
2022-10-25T05:09:31.057Z,16.30
2022-10-25T05:11:59.171Z,16.30
2022-10-25T05:14:27.356Z,16.30
2022-10-25T05:16:58.982Z,16.30
2022-10-25T05:19:28.007Z,16.30
2022-10-25T05:21:57.123Z,16.30
2022-10-25T05:24:27.966Z,16.30
2022-10-25T05:26:56.630Z,16.30
2022-10-25T05:29:26.931Z,16.30
2022-10-25T05:31:58.781Z,16.30
2022-10-25T05:34:28.297Z,16.30
2022-10-25T05:36:57.137Z,16.30
2022-10-25T05:39:29.303Z,16.30
2022-10-25T05:41:58.282Z,16.30
2022-10-25T05:44:26.626Z,16.30
2022-10-25T05:46:55.273Z,16.30
2022-10-25T05:49:23.546Z,16.30
2022-10-25T05:51:51.752Z,16.30
2022-10-25T05:54:20.058Z,16.30
2022-10-25T05:56:49.582Z,16.30
2022-10-25T05:59:17.750Z,16.30
2022-10-25T06:01:47.617Z,16.30
2022-10-25T06:04:16.660Z,16.30
2022-10-25T06:06:46.187Z,16.20
2022-10-25T06:09:15.137Z,16.20
2022-10-25T06:11:43.369Z,16.30
2022-10-25T06:14:13.000Z,16.30
2022-10-25T06:16:41.189Z,16.20
2022-10-25T06:19:09.707Z,16.30
2022-10-25T06:21:38.221Z,16.20
2022-10-25T06:24:07.132Z,16.20
2022-10-25T06:26:35.339Z,16.30
2022-10-25T06:29:05.343Z,16.20
2022-10-25T06:31:35.138Z,16.20
2022-10-25T06:34:03.932Z,16.20
2022-10-25T06:36:32.558Z,16.20
2022-10-25T06:39:05.907Z,16.30
2022-10-25T06:41:37.739Z,16.20
2022-10-25T06:44:07.439Z,16.20
2022-10-25T06:49:27.901Z,16.20
2022-10-25T06:51:56.561Z,16.20
2022-10-25T06:54:26.643Z,16.40
2022-10-25T06:56:54.970Z,16.20
2022-10-25T06:59:23.667Z,16.20
2022-10-25T07:01:54.133Z,16.20
2022-10-25T07:04:22.356Z,16.20
2022-10-25T07:06:52.961Z,16.20
2022-10-25T07:09:23.807Z,16.20
2022-10-25T07:11:51.923Z,16.20
2022-10-25T07:14:20.032Z,16.20
2022-10-25T07:16:48.193Z,16.20
2022-10-25T07:19:17.795Z,16.20
2022-10-25T07:21:46.224Z,16.50
2022-10-25T07:24:15.223Z,16.10
2022-10-25T07:26:43.714Z,16.20
2022-10-25T07:29:11.842Z,16.10
2022-10-25T07:31:44.382Z,16.20
2022-10-25T07:34:14.488Z,16.10
2022-10-25T07:36:44.270Z,16.20
2022-10-25T07:39:12.562Z,16.10
2022-10-25T07:41:40.681Z,16.10
2022-10-25T07:44:13.017Z,16.10
2022-10-25T07:46:44.396Z,16.10
2022-10-25T07:49:12.629Z,16.10
2022-10-25T07:51:41.207Z,16.10
2022-10-25T07:54:10.976Z,16.10
2022-10-25T07:56:39.235Z,16.10
2022-10-25T07:59:07.505Z,16.10
2022-10-25T08:01:36.773Z,16.10
2022-10-25T08:04:05.485Z,16.10
2022-10-25T08:06:33.686Z,16.10
2022-10-25T08:09:09.768Z,16.10
2022-10-25T08:11:44.648Z,16.10
2022-10-25T08:14:12.899Z,16.10
2022-10-25T08:16:41.096Z,16.10
2022-10-25T08:19:09.276Z,16.10
2022-10-25T08:21:37.426Z,16.10
2022-10-25T08:24:06.518Z,16.10
2022-10-25T08:26:36.897Z,16.10
2022-10-25T08:29:06.967Z,16.20
2022-10-25T08:31:36.199Z,16.20
2022-10-25T08:34:04.569Z,16.20
2022-10-25T08:36:32.744Z,16.20
2022-10-25T08:39:01.132Z,16.20
2022-10-25T08:41:39.982Z,16.20
2022-10-25T08:44:17.301Z,16.20
2022-10-25T08:46:56.718Z,16.20
2022-10-25T08:49:32.609Z,16.20
2022-10-25T08:52:01.696Z,16.30
2022-10-25T08:54:34.103Z,16.30
2022-10-25T08:57:16.728Z,16.30
2022-10-25T08:59:50.624Z,16.30
2022-10-25T09:02:24.394Z,16.30
2022-10-25T09:04:52.750Z,16.30
2022-10-25T09:07:46.000Z,16.30
2022-10-25T09:10:25.089Z,16.30
2022-10-25T09:12:59.955Z,16.30
2022-10-25T09:15:43.152Z,16.30
2022-10-25T09:18:17.031Z,16.30
2022-10-25T09:20:50.739Z,16.30
2022-10-25T09:23:28.879Z,16.30
2022-10-25T09:26:04.925Z,16.30
2022-10-25T09:28:52.167Z,16.40
2022-10-25T09:31:24.587Z,16.30
2022-10-25T09:34:01.584Z,16.40
2022-10-25T09:36:39.103Z,16.40
2022-10-25T09:39:16.705Z,16.40
2022-10-25T09:41:47.747Z,16.40
2022-10-25T09:44:25.041Z,16.40
2022-10-25T09:46:58.619Z,16.40
2022-10-25T09:49:33.288Z,16.40
2022-10-25T09:52:14.161Z,16.40
2022-10-25T09:54:50.421Z,16.40
2022-10-25T09:57:18.774Z,16.40
2022-10-25T09:59:51.044Z,16.40
2022-10-25T10:02:25.391Z,16.40
2022-10-25T10:04:54.294Z,16.40
2022-10-25T10:07:29.201Z,16.50
2022-10-25T10:10:00.772Z,16.40
2022-10-25T10:12:33.036Z,16.40
2022-10-25T10:15:05.875Z,16.40
2022-10-25T10:17:35.618Z,16.50
2022-10-25T10:20:13.859Z,16.40
2022-10-25T10:22:51.712Z,16.50
2022-10-25T10:25:23.713Z,16.50
2022-10-25T10:27:55.211Z,16.50
2022-10-25T10:30:26.827Z,16.50
2022-10-25T10:33:00.315Z,16.50
2022-10-25T10:35:34.006Z,16.50
2022-10-25T10:38:24.664Z,16.50
2022-10-25T10:40:55.820Z,16.50
2022-10-25T10:43:28.204Z,16.50
2022-10-25T10:46:03.468Z,16.50
2022-10-25T10:48:42.054Z,16.50
2022-10-25T10:51:31.699Z,16.50
2022-10-25T10:54:22.659Z,16.50
2022-10-25T10:56:55.443Z,16.50
2022-10-25T10:59:41.774Z,16.60
2022-10-25T11:02:41.201Z,16.60
2022-10-25T11:05:26.293Z,16.60
2022-10-25T11:07:57.614Z,16.60
2022-10-25T11:10:29.240Z,16.60
2022-10-25T11:13:09.433Z,16.60
2022-10-25T11:16:04.268Z,16.70
2022-10-25T11:18:44.033Z,16.70
2022-10-25T11:21:27.707Z,16.70
2022-10-25T11:24:06.697Z,16.70
2022-10-25T11:26:50.372Z,16.70
2022-10-25T11:29:28.037Z,16.70
2022-10-25T11:32:05.248Z,16.70
2022-10-25T11:34:44.802Z,16.70
2022-10-25T11:37:21.048Z,16.70
2022-10-25T11:40:01.436Z,16.70
2022-10-25T11:42:52.832Z,16.70
2022-10-25T11:45:36.969Z,16.70
2022-10-25T11:48:25.148Z,16.70
2022-10-25T11:51:02.352Z,16.70
2022-10-25T11:53:58.686Z,16.80
2022-10-25T11:56:33.742Z,16.80
2022-10-25T11:59:11.173Z,16.80
2022-10-25T12:01:53.720Z,16.80
2022-10-25T12:04:40.452Z,16.80
2022-10-25T12:07:16.758Z,16.80
2022-10-25T12:09:56.830Z,16.80
2022-10-25T12:12:31.555Z,16.80
2022-10-25T12:15:01.891Z,16.80
2022-10-25T12:17:33.443Z,16.80
2022-10-25T12:20:05.621Z,16.90
2022-10-25T12:22:39.481Z,16.90
2022-10-25T12:25:16.452Z,16.90
2022-10-25T12:27:47.065Z,16.90
2022-10-25T12:30:19.002Z,16.90
2022-10-25T12:32:53.789Z,17.00
2022-10-25T12:35:25.330Z,17.00
2022-10-25T12:37:58.894Z,17.00
2022-10-25T12:40:29.896Z,17.00
2022-10-25T12:43:05.959Z,17.00
2022-10-25T12:46:17.426Z,17.00
2022-10-25T12:49:05.210Z,17.10
2022-10-25T12:52:05.602Z,17.10
2022-10-25T12:54:59.878Z,17.10
2022-10-25T12:57:34.960Z,17.10
2022-10-25T13:00:11.269Z,17.10
2022-10-25T13:03:19.441Z,17.20
2022-10-25T13:06:08.897Z,17.20
2022-10-25T13:08:40.043Z,17.20
2022-10-25T13:11:10.386Z,17.20
2022-10-25T13:13:47.542Z,17.20
2022-10-25T13:16:25.578Z,17.30
2022-10-25T13:22:39.438Z,17.30
2022-10-25T13:25:19.293Z,17.30
2022-10-25T13:28:32.767Z,17.30
2022-10-25T13:31:44.804Z,17.30
2022-10-25T13:34:38.877Z,17.30
2022-10-25T13:37:23.078Z,17.30
2022-10-25T13:39:55.356Z,17.30
2022-10-25T13:42:31.690Z,17.30
2022-10-25T13:45:07.491Z,17.30
2022-10-25T13:47:42.767Z,17.30
2022-10-25T13:50:18.786Z,17.30
2022-10-25T13:53:00.308Z,17.30
2022-10-25T13:55:36.057Z,17.30
2022-10-25T13:58:39.403Z,17.30
2022-10-25T14:01:56.562Z,17.30
2022-10-25T14:04:41.524Z,17.30
2022-10-25T14:07:44.844Z,17.30
2022-10-25T14:10:38.290Z,17.30
2022-10-25T14:13:22.560Z,17.30
2022-10-25T14:15:57.734Z,17.30
2022-10-25T14:18:27.045Z,17.30
2022-10-25T14:21:00.254Z,17.30
2022-10-25T14:23:33.430Z,17.40
2022-10-25T14:26:03.531Z,17.30
2022-10-25T14:28:33.550Z,17.40
2022-10-25T14:31:03.449Z,17.40
2022-10-25T14:33:36.626Z,17.40
2022-10-25T14:36:23.180Z,17.40
2022-10-25T14:38:53.821Z,17.40
2022-10-25T14:41:24.213Z,17.40
2022-10-25T14:43:52.656Z,17.40
2022-10-25T14:46:22.820Z,17.40
2022-10-25T14:48:55.427Z,17.40
2022-10-25T14:51:28.541Z,17.40
2022-10-25T14:53:59.693Z,17.40
2022-10-25T14:56:31.139Z,17.40
2022-10-25T14:59:00.847Z,17.40
2022-10-25T15:01:29.814Z,17.40
2022-10-25T15:04:01.325Z,17.40
2022-10-25T15:06:33.356Z,17.40
2022-10-25T15:12:09.037Z,17.40
2022-10-25T15:14:37.606Z,17.40
2022-10-25T15:17:07.693Z,17.40
2022-10-25T15:20:05.765Z,17.30
2022-10-25T15:22:42.375Z,17.30
2022-10-25T15:25:30.385Z,17.30
2022-10-25T15:28:09.722Z,17.30
2022-10-25T15:30:40.311Z,17.30
2022-10-25T15:33:12.223Z,17.30
2022-10-25T15:35:48.636Z,17.30
2022-10-25T15:38:18.397Z,17.30
2022-10-25T15:40:47.550Z,17.30
2022-10-25T15:43:16.548Z,17.30
2022-10-25T15:45:44.909Z,17.30
2022-10-25T15:48:16.845Z,17.30
2022-10-25T15:50:51.087Z,17.30
2022-10-25T15:53:20.273Z,17.30
2022-10-25T15:55:49.794Z,17.30
2022-10-25T15:58:18.036Z,17.30
2022-10-25T16:00:47.957Z,17.30
2022-10-25T16:03:22.473Z,17.30
2022-10-25T16:05:53.136Z,17.30
2022-10-25T16:08:21.393Z,17.30
2022-10-25T16:10:49.937Z,17.30
2022-10-25T16:13:24.404Z,17.30
2022-10-25T16:15:52.597Z,17.30
2022-10-25T16:18:20.747Z,17.30
2022-10-25T16:20:49.355Z,17.30
2022-10-25T16:23:22.604Z,17.30
2022-10-25T16:25:51.122Z,17.30
2022-10-25T16:28:20.423Z,17.30
2022-10-25T16:30:49.289Z,17.30
2022-10-25T16:33:17.602Z,17.30
2022-10-25T16:35:45.823Z,17.30
2022-10-25T16:38:15.682Z,17.20
2022-10-25T16:40:45.263Z,17.20
2022-10-25T16:43:13.851Z,17.20
2022-10-25T16:45:42.358Z,17.20
2022-10-25T16:48:10.624Z,17.20
2022-10-25T16:50:38.982Z,17.20
2022-10-25T16:53:09.336Z,17.20
2022-10-25T16:55:37.708Z,17.20
2022-10-25T16:58:07.421Z,17.10
2022-10-25T17:00:36.396Z,17.10
2022-10-25T17:03:04.823Z,17.20
2022-10-25T17:05:33.651Z,17.10
2022-10-25T17:08:02.257Z,17.20
2022-10-25T17:10:30.382Z,17.10
2022-10-25T17:13:03.116Z,17.10
2022-10-25T17:15:33.501Z,17.10
2022-10-25T17:18:01.837Z,17.10
2022-10-25T17:20:30.150Z,17.10
2022-10-25T17:22:58.425Z,17.10
2022-10-25T17:25:26.702Z,17.00
2022-10-25T17:27:55.440Z,17.00
2022-10-25T17:30:23.905Z,17.00
2022-10-25T17:32:53.410Z,17.00
2022-10-25T17:35:28.524Z,17.00
2022-10-25T17:37:58.115Z,17.00
2022-10-25T17:40:26.474Z,17.00
2022-10-25T17:42:55.409Z,17.00
2022-10-25T17:45:23.614Z,16.90
2022-10-25T17:47:53.182Z,16.90
2022-10-25T17:50:22.208Z,16.90
2022-10-25T17:52:51.793Z,16.90
2022-10-25T17:55:20.369Z,16.90
2022-10-25T17:57:50.050Z,16.90
2022-10-25T18:00:19.433Z,16.90
2022-10-25T18:02:50.695Z,16.90
2022-10-25T18:05:22.236Z,16.90
2022-10-25T18:07:50.979Z,16.90
2022-10-25T18:10:19.953Z,16.80
2022-10-25T18:12:48.883Z,16.80
2022-10-25T18:15:17.771Z,16.80
2022-10-25T18:17:46.820Z,16.80
2022-10-25T18:20:15.682Z,16.80
2022-10-25T18:22:45.536Z,16.80
2022-10-25T18:25:13.964Z,16.80
2022-10-25T18:27:42.154Z,16.80
2022-10-25T18:30:12.039Z,16.80
2022-10-25T18:32:40.385Z,16.70
2022-10-25T18:35:09.199Z,16.70
2022-10-25T18:37:38.275Z,16.70
2022-10-25T18:40:10.162Z,16.70
2022-10-25T18:42:38.741Z,16.70
2022-10-25T18:45:08.246Z,16.70
2022-10-25T18:47:36.691Z,16.60
2022-10-25T18:50:05.825Z,16.60
2022-10-25T18:52:33.956Z,16.60
2022-10-25T18:55:02.099Z,16.60
2022-10-25T18:57:31.912Z,16.60
2022-10-25T19:00:00.281Z,16.60
2022-10-25T19:02:30.402Z,16.60
2022-10-25T19:05:00.675Z,16.60
2022-10-25T19:07:29.519Z,16.60
2022-10-25T19:09:57.830Z,16.50
2022-10-25T19:12:26.222Z,16.50
2022-10-25T19:14:56.078Z,16.50
2022-10-25T19:17:24.415Z,16.40
2022-10-25T19:19:52.592Z,16.40
2022-10-25T19:22:20.801Z,16.40
2022-10-25T19:24:49.135Z,16.40
2022-10-25T19:27:17.508Z,16.40
2022-10-25T19:29:45.742Z,16.40
2022-10-25T19:32:15.277Z,16.40
2022-10-25T19:34:43.511Z,16.30
2022-10-25T19:37:11.926Z,16.30
2022-10-25T19:39:41.458Z,16.40
2022-10-25T19:42:11.417Z,16.30
2022-10-25T19:44:40.047Z,16.30
2022-10-25T19:47:09.585Z,16.30
2022-10-25T19:49:42.931Z,16.20
2022-10-25T19:52:14.213Z,16.20
2022-10-25T19:54:42.448Z,16.20
2022-10-25T19:57:10.679Z,16.20
2022-10-25T19:59:41.083Z,16.20
2022-10-25T20:02:09.987Z,16.20
2022-10-25T20:04:43.008Z,16.20
2022-10-25T20:07:11.834Z,16.20
2022-10-25T20:09:41.196Z,16.20
2022-10-25T20:12:10.367Z,16.20
2022-10-25T20:14:38.744Z,16.20
2022-10-25T20:17:07.705Z,16.20
2022-10-25T20:19:38.803Z,16.10
2022-10-25T20:22:08.850Z,16.20
2022-10-25T20:24:37.139Z,16.10
2022-10-25T20:27:06.685Z,16.20
2022-10-25T20:29:34.999Z,16.10
2022-10-25T20:32:03.149Z,16.10
2022-10-25T20:34:32.225Z,16.10
2022-10-25T20:37:00.419Z,16.10
2022-10-25T20:39:29.972Z,16.10
2022-10-25T20:41:58.178Z,16.10
2022-10-25T20:44:26.745Z,16.10
2022-10-25T20:46:55.504Z,16.00
2022-10-25T20:49:23.634Z,16.00
2022-10-25T20:51:51.856Z,16.00
2022-10-25T20:54:20.098Z,16.00
2022-10-25T20:56:49.678Z,16.00
2022-10-25T20:59:17.839Z,16.00
2022-10-25T21:01:46.241Z,16.00
2022-10-25T21:04:25.750Z,16.00
2022-10-25T21:07:03.746Z,16.00
2022-10-25T21:09:31.897Z,15.90
2022-10-25T21:12:01.440Z,15.90
2022-10-25T21:14:29.606Z,15.90
2022-10-25T21:16:57.759Z,15.90
2022-10-25T21:19:25.907Z,15.80
2022-10-25T21:21:54.060Z,15.80
2022-10-25T21:24:22.311Z,15.80
2022-10-25T21:26:51.553Z,15.80
2022-10-25T21:29:21.376Z,15.80
2022-10-25T21:31:49.580Z,15.80
2022-10-25T21:34:21.361Z,15.80
2022-10-25T21:36:49.519Z,15.80
2022-10-25T21:39:22.755Z,15.70
2022-10-25T21:41:51.437Z,15.80
2022-10-25T21:44:22.267Z,15.80
2022-10-25T21:46:50.505Z,15.70
2022-10-25T21:49:18.650Z,15.70
2022-10-25T21:51:47.029Z,15.70
2022-10-25T21:54:15.400Z,15.70
2022-10-25T21:56:43.583Z,15.70
2022-10-25T21:59:12.084Z,15.70
2022-10-25T22:01:41.733Z,15.70
2022-10-25T22:04:10.061Z,15.70
2022-10-25T22:06:38.362Z,15.70
2022-10-25T22:09:06.821Z,15.70
2022-10-25T22:11:37.276Z,15.80
2022-10-25T22:14:07.303Z,15.70
2022-10-25T22:16:35.796Z,15.70
2022-10-25T22:19:07.794Z,15.80
2022-10-25T22:21:38.447Z,15.80
2022-10-25T22:24:09.230Z,15.80
2022-10-25T22:26:38.566Z,15.80
2022-10-25T22:29:07.500Z,15.80
2022-10-25T22:31:35.623Z,15.80
2022-10-25T22:34:07.139Z,15.80
2022-10-25T22:36:37.220Z,15.80
2022-10-25T22:39:06.172Z,15.80
2022-10-25T22:41:34.728Z,15.80
2022-10-25T22:44:02.883Z,15.80
2022-10-25T22:46:33.247Z,15.80
2022-10-25T22:49:06.360Z,15.80
2022-10-25T22:51:36.365Z,15.80
2022-10-25T22:54:04.935Z,15.80
2022-10-25T22:56:33.830Z,15.80
2022-10-25T22:59:03.723Z,15.80
2022-10-25T23:01:33.099Z,15.80
2022-10-25T23:04:03.943Z,15.80
2022-10-25T23:06:34.128Z,15.80
2022-10-25T23:09:05.730Z,15.80
2022-10-25T23:11:35.733Z,15.80
2022-10-25T23:14:05.180Z,15.80
2022-10-25T23:16:34.351Z,15.80
2022-10-25T23:19:02.625Z,15.80
2022-10-25T23:21:31.310Z,15.80
2022-10-25T23:24:00.884Z,15.80
2022-10-25T23:26:32.445Z,15.80
2022-10-25T23:29:01.686Z,16.00
2022-10-25T23:31:30.675Z,15.80
2022-10-25T23:34:00.277Z,15.80
2022-10-25T23:36:30.456Z,15.80
2022-10-25T23:38:59.872Z,15.80
2022-10-25T23:41:28.036Z,15.80
2022-10-25T23:43:57.463Z,15.80
2022-10-25T23:46:25.559Z,15.80
2022-10-25T23:48:53.732Z,15.80
2022-10-25T23:51:21.911Z,15.80
2022-10-25T23:53:50.286Z,15.80
2022-10-25T23:56:18.459Z,15.80
2022-10-25T23:58:50.348Z,15.80
